Погода Дригучина неделю

Витебская область, Белоруссия

23 - 29 июля
  • 23июля
    Сегодня
    +16°
    +26°
    Практически безоблачно
    ВремяПогодаТемператураВлажностьДавлениеВетер, м/сВероятность осадков
    00:00Ясно и безоблачно+18°C92 %751 мм2.0 м/с2 %
    03:00Ясно и безоблачно+16°C96 %751 мм1.8 м/с2 %
    06:00Ясно и безоблачно+16°C98 %751 мм1.8 м/с2 %
    09:00Ясно и безоблачно+21°C79 %752 мм1.3 м/с2 %
    12:00Ясно и безоблачно+24°C57 %751 мм1.6 м/с10 %
    15:00Практически безоблачно+26°C50 %751 мм1.3 м/с36 %
    18:00Практически безоблачно+26°C50 %751 мм2.2 м/с34 %
    21:00Практически безоблачно+23°C67 %751 мм1.7 м/с7 %
  • 24июля
    Среда
    +15°
    +26°
    Облачно с прояснениями
    ВремяПогодаТемператураВлажностьДавлениеВетер, м/сВероятность осадков
    00:00Практически безоблачно+19°C76 %751 мм2.4 м/с2 %
    03:00Практически безоблачно+17°C84 %751 мм1.9 м/с2 %
    06:00Пасмурно, сплошная облачность+17°C81 %751 мм2.1 м/с2 %
    09:00Практически безоблачно+21°C68 %751 мм1.5 м/с1 %
    12:00Небольшая облачность+25°C46 %750 мм2.5 м/с2 %
    15:00Облачно с прояснениями+25°C41 %750 мм2.9 м/с3 %
    18:00Небольшая облачность+25°C45 %749 мм2.7 м/с4 %
    21:00Ясно и безоблачно+22°C64 %749 мм2.5 м/с1 %
  • 25июля
    Четверг
    +14°
    +26°
    Облачно с прояснениями
    ВремяПогодаТемператураВлажностьДавлениеВетер, м/сВероятность осадков
    00:00Практически безоблачно+18°C81 %749 мм2.0 м/с2 %
    03:00Практически безоблачно+16°C88 %749 мм1.8 м/с2 %
    06:00Ясно и безоблачно+16°C86 %749 мм2.0 м/с2 %
    09:00Ясно и безоблачно+22°C69 %749 мм1.2 м/с2 %
    12:00Практически безоблачно+25°C40 %749 мм2.9 м/с3 %
    15:00Облачно с прояснениями+25°C38 %748 мм2.8 м/с2 %
    18:00Практически безоблачно+26°C39 %748 мм2.4 м/с2 %
    21:00Практически безоблачно+22°C62 %748 мм1.7 м/с2 %
  • 26июля
    Пятница
    +15°
    +28°
    Небольшая облачность
    ВремяПогодаТемператураВлажностьДавлениеВетер, м/сВероятность осадков
    00:00Небольшая облачность+18°C70 %748 мм1.5 м/с2 %
    03:00Ясно и безоблачно+15°C79 %749 мм2.2 м/с2 %
    06:00Практически безоблачно+16°C76 %749 мм1.8 м/с2 %
    09:00Ясно и безоблачно+22°C58 %750 мм0.5 м/с2 %
    12:00Небольшая облачность+26°C37 %750 мм1.1 м/с17 %
    15:00Небольшая облачность+27°C35 %750 мм1.0 м/с23 %
    18:00Практически безоблачно+27°C37 %750 мм1.2 м/с34 %
    21:00Ясно и безоблачно+23°C61 %751 мм1.6 м/с26 %
  • 27июля
    Суббота
    +16°
    +28°
    Небольшая облачность
    ВремяПогодаТемператураВлажностьДавлениеВетер, м/сВероятность осадков
    00:00Ясно и безоблачно+19°C74 %752 мм2.0 м/с4 %
    03:00Ясно и безоблачно+17°C88 %752 мм1.7 м/с10 %
    06:00Ясно и безоблачно+16°C88 %753 мм1.4 м/с7 %
    09:00Небольшая облачность+22°C65 %753 мм0.9 м/с3 %
    12:00Облачно с прояснениями+26°C44 %754 мм1.7 м/с12 %
    15:00Небольшая облачность+27°C37 %753 мм1.7 м/с29 %
    18:00Ясно и безоблачно+26°C36 %753 мм2.0 м/с36 %
    21:00Практически безоблачно+25°C47 %753 мм0.9 м/с22 %
Мы используем cookies
Соглашаюсь